Savage, Minnesota
Current Conditions -  °F | °C
As of 6:53 PM on Saturday 25 Oct 2014 (Local Time) from KFCM Reporting Station
Clear Clear  
Wind Chill: 56°   Ceiling: Unl
Heat Index: 56°   Visibility: 10mi
Dew Point: 25°   Wind: 7mph
Humidity: 30%   Direction: 290°WNW
Pressure: 30.04"   Gusts: NA
Location:  44.76°N, 93.35°W
Report Text: KFCM 252353Z 29006KT 10SM CLR 13/M04 A3004 RMK AO2 SLP175 T01331039 10178 20128 51003
Loading
Personal Weather Stations






























Interactive Weather Map
Tropical Storm Tracking
New forecast layout! Learn more

10-Day Weather Forecast

Advertisements
Track Severe Weather on mobile